sensor_id;sensor_type;location;lat;lon;timestamp;P1;durP1;ratioP1;P2;durP2;ratioP2
4986;SDS011;12674;51.500;7.552;2022-07-23T00:00:46;17.85;;;8.27;;
4986;SDS011;12674;51.500;7.552;2022-07-23T00:02:49;17.85;;;7.72;;
4986;SDS011;12674;51.500;7.552;2022-07-23T00:04:52;19.00;;;8.35;;
4986;SDS011;12674;51.500;7.552;2022-07-23T00:06:56;16.42;;;8.18;;
4986;SDS011;12674;51.500;7.552;2022-07-23T00:08:59;12.02;;;7.28;;
4986;SDS011;12674;51.500;7.552;2022-07-23T00:11:02;19.92;;;9.15;;
4986;SDS011;12674;51.500;7.552;2022-07-23T00:13:09;17.23;;;8.82;;
4986;SDS011;12674;51.500;7.552;2022-07-23T00:15:12;27.75;;;9.00;;
4986;SDS011;12674;51.500;7.552;2022-07-23T00:17:15;16.65;;;8.90;;
4986;SDS011;12674;51.500;7.552;2022-07-23T00:19:19;17.23;;;10.38;;
4986;SDS011;12674;51.500;7.552;2022-07-23T00:21:22;18.35;;;10.57;;
4986;SDS011;12674;51.500;7.552;2022-07-23T00:23:25;26.27;;;10.13;;
4986;SDS011;12674;51.500;7.552;2022-07-23T00:25:29;20.75;;;10.55;;
4986;SDS011;12674;51.500;7.552;2022-07-23T00:27:33;16.00;;;10.98;;
4986;SDS011;12674;51.500;7.552;2022-07-23T00:29:37;30.60;;;12.40;;
4986;SDS011;12674;51.500;7.552;2022-07-23T00:31:40;24.17;;;11.73;;
4986;SDS011;12674;51.500;7.552;2022-07-23T00:33:48;22.80;;;11.18;;
4986;SDS011;12674;51.500;7.552;2022-07-23T00:35:51;24.25;;;11.02;;
4986;SDS011;12674;51.500;7.552;2022-07-23T00:37:54;18.55;;;10.63;;
4986;SDS011;12674;51.500;7.552;2022-07-23T00:39:58;25.02;;;13.15;;
4986;SDS011;12674;51.500;7.552;2022-07-23T00:42:01;31.27;;;13.52;;
4986;SDS011;12674;51.500;7.552;2022-07-23T00:44:14;22.30;;;12.15;;
4986;SDS011;12674;51.500;7.552;2022-07-23T00:46:20;21.92;;;11.88;;
4986;SDS011;12674;51.500;7.552;2022-07-23T00:48:24;18.45;;;11.38;;
4986;SDS011;12674;51.500;7.552;2022-07-23T00:50:27;23.85;;;12.48;;
4986;SDS011;12674;51.500;7.552;2022-07-23T00:52:31;22.52;;;13.20;;
4986;SDS011;12674;51.500;7.552;2022-07-23T00:54:34;23.52;;;13.05;;
4986;SDS011;12674;51.500;7.552;2022-07-23T00:56:37;22.42;;;11.70;;
4986;SDS011;12674;51.500;7.552;2022-07-23T00:58:41;28.05;;;13.05;;
4986;SDS011;12674;51.500;7.552;2022-07-23T01:00:45;26.55;;;12.88;;
4986;SDS011;12674;51.500;7.552;2022-07-23T01:02:50;23.35;;;12.30;;
4986;SDS011;12674;51.500;7.552;2022-07-23T01:04:53;24.90;;;13.35;;
4986;SDS011;12674;51.500;7.552;2022-07-23T01:06:57;27.13;;;13.55;;
4986;SDS011;12674;51.500;7.552;2022-07-23T01:09:00;20.45;;;12.55;;
4986;SDS011;12674;51.500;7.552;2022-07-23T01:11:07;28.58;;;13.98;;
4986;SDS011;12674;51.500;7.552;2022-07-23T01:13:10;27.20;;;14.23;;
4986;SDS011;12674;51.500;7.552;2022-07-23T01:15:13;24.30;;;13.15;;
4986;SDS011;12674;51.500;7.552;2022-07-23T01:17:16;23.23;;;13.85;;
4986;SDS011;12674;51.500;7.552;2022-07-23T01:19:20;27.58;;;14.02;;
4986;SDS011;12674;51.500;7.552;2022-07-23T01:21:24;22.83;;;13.30;;
4986;SDS011;12674;51.500;7.552;2022-07-23T01:23:29;21.20;;;13.25;;
4986;SDS011;12674;51.500;7.552;2022-07-23T01:25:33;29.65;;;14.05;;
4986;SDS011;12674;51.500;7.552;2022-07-23T01:27:38;29.40;;;13.70;;
4986;SDS011;12674;51.500;7.552;2022-07-23T01:29:42;27.02;;;14.40;;
4986;SDS011;12674;51.500;7.552;2022-07-23T01:31:51;29.75;;;15.00;;
4986;SDS011;12674;51.500;7.552;2022-07-23T01:33:54;21.73;;;13.52;;
4986;SDS011;12674;51.500;7.552;2022-07-23T01:35:57;24.02;;;13.80;;
4986;SDS011;12674;51.500;7.552;2022-07-23T01:38:00;22.17;;;14.60;;
4986;SDS011;12674;51.500;7.552;2022-07-23T01:40:05;23.45;;;13.95;;
4986;SDS011;12674;51.500;7.552;2022-07-23T01:42:10;26.02;;;15.52;;
4986;SDS011;12674;51.500;7.552;2022-07-23T01:44:14;31.25;;;15.13;;
4986;SDS011;12674;51.500;7.552;2022-07-23T01:46:18;25.38;;;14.60;;
4986;SDS011;12674;51.500;7.552;2022-07-23T01:48:23;24.73;;;14.73;;
4986;SDS011;12674;51.500;7.552;2022-07-23T01:50:48;24.20;;;13.73;;
4986;SDS011;12674;51.500;7.552;2022-07-23T01:52:55;27.40;;;13.98;;
4986;SDS011;12674;51.500;7.552;2022-07-23T01:54:58;20.85;;;13.38;;
4986;SDS011;12674;51.500;7.552;2022-07-23T01:57:03;27.55;;;16.48;;
4986;SDS011;12674;51.500;7.552;2022-07-23T01:59:07;29.33;;;17.30;;
4986;SDS011;12674;51.500;7.552;2022-07-23T02:01:10;30.80;;;15.90;;
4986;SDS011;12674;51.500;7.552;2022-07-23T02:03:13;33.90;;;16.75;;
4986;SDS011;12674;51.500;7.552;2022-07-23T02:05:16;28.25;;;16.13;;
4986;SDS011;12674;51.500;7.552;2022-07-23T02:07:20;25.60;;;16.23;;
4986;SDS011;12674;51.500;7.552;2022-07-23T02:09:25;28.70;;;14.88;;
4986;SDS011;12674;51.500;7.552;2022-07-23T02:11:28;24.40;;;15.32;;
4986;SDS011;12674;51.500;7.552;2022-07-23T02:13:33;30.30;;;17.48;;
4986;SDS011;12674;51.500;7.552;2022-07-23T02:15:36;27.45;;;16.85;;
4986;SDS011;12674;51.500;7.552;2022-07-23T02:17:39;30.27;;;16.52;;
4986;SDS011;12674;51.500;7.552;2022-07-23T02:19:42;28.98;;;16.02;;
4986;SDS011;12674;51.500;7.552;2022-07-23T02:21:45;27.58;;;15.52;;
4986;SDS011;12674;51.500;7.552;2022-07-23T02:23:48;25.27;;;15.68;;
4986;SDS011;12674;51.500;7.552;2022-07-23T02:25:51;24.67;;;15.07;;
4986;SDS011;12674;51.500;7.552;2022-07-23T02:27:55;31.15;;;15.45;;
4986;SDS011;12674;51.500;7.552;2022-07-23T02:29:59;24.85;;;13.75;;
4986;SDS011;12674;51.500;7.552;2022-07-23T02:32:03;35.20;;;17.20;;
4986;SDS011;12674;51.500;7.552;2022-07-23T02:34:08;29.63;;;16.42;;
4986;SDS011;12674;51.500;7.552;2022-07-23T02:36:14;32.75;;;16.25;;
4986;SDS011;12674;51.500;7.552;2022-07-23T02:38:17;30.15;;;16.58;;
4986;SDS011;12674;51.500;7.552;2022-07-23T02:40:20;31.13;;;15.68;;
4986;SDS011;12674;51.500;7.552;2022-07-23T02:42:23;24.58;;;16.08;;
4986;SDS011;12674;51.500;7.552;2022-07-23T02:44:27;34.00;;;15.30;;
4986;SDS011;12674;51.500;7.552;2022-07-23T02:46:31;29.75;;;16.35;;
4986;SDS011;12674;51.500;7.552;2022-07-23T02:48:35;31.75;;;17.75;;
4986;SDS011;12674;51.500;7.552;2022-07-23T02:50:38;21.73;;;14.07;;
4986;SDS011;12674;51.500;7.552;2022-07-23T02:52:41;31.95;;;15.52;;
4986;SDS011;12674;51.500;7.552;2022-07-23T02:54:45;35.80;;;18.45;;
4986;SDS011;12674;51.500;7.552;2022-07-23T02:56:50;25.20;;;15.77;;
4986;SDS011;12674;51.500;7.552;2022-07-23T02:58:53;26.75;;;16.77;;
4986;SDS011;12674;51.500;7.552;2022-07-23T03:00:56;29.27;;;15.32;;
4986;SDS011;12674;51.500;7.552;2022-07-23T03:03:01;26.63;;;15.95;;
4986;SDS011;12674;51.500;7.552;2022-07-23T03:05:05;26.98;;;15.70;;
4986;SDS011;12674;51.500;7.552;2022-07-23T03:07:09;32.92;;;17.05;;
4986;SDS011;12674;51.500;7.552;2022-07-23T03:09:12;23.25;;;14.63;;
4986;SDS011;12674;51.500;7.552;2022-07-23T03:11:15;28.77;;;15.02;;
4986;SDS011;12674;51.500;7.552;2022-07-23T03:13:19;21.83;;;14.32;;
4986;SDS011;12674;51.500;7.552;2022-07-23T03:15:23;26.50;;;13.77;;
4986;SDS011;12674;51.500;7.552;2022-07-23T03:17:26;27.35;;;15.25;;
4986;SDS011;12674;51.500;7.552;2022-07-23T03:19:31;26.08;;;16.23;;
4986;SDS011;12674;51.500;7.552;2022-07-23T03:21:35;29.77;;;17.00;;
4986;SDS011;12674;51.500;7.552;2022-07-23T03:23:41;27.17;;;15.63;;
4986;SDS011;12674;51.500;7.552;2022-07-23T03:25:45;26.88;;;14.55;;
4986;SDS011;12674;51.500;7.552;2022-07-23T03:27:54;24.23;;;15.68;;
4986;SDS011;12674;51.500;7.552;2022-07-23T03:30:00;23.65;;;15.90;;
4986;SDS011;12674;51.500;7.552;2022-07-23T03:32:04;31.23;;;13.75;;
4986;SDS011;12674;51.500;7.552;2022-07-23T03:34:07;20.25;;;13.43;;
4986;SDS011;12674;51.500;7.552;2022-07-23T03:36:11;29.48;;;16.45;;
4986;SDS011;12674;51.500;7.552;2022-07-23T03:38:17;33.22;;;16.35;;
4986;SDS011;12674;51.500;7.552;2022-07-23T03:40:20;28.50;;;16.40;;
4986;SDS011;12674;51.500;7.552;2022-07-23T03:42:23;25.50;;;16.38;;
4986;SDS011;12674;51.500;7.552;2022-07-23T03:44:26;29.58;;;15.95;;
4986;SDS011;12674;51.500;7.552;2022-07-23T03:46:31;25.10;;;14.50;;
4986;SDS011;12674;51.500;7.552;2022-07-23T03:48:34;27.77;;;14.75;;
4986;SDS011;12674;51.500;7.552;2022-07-23T03:50:37;25.70;;;17.83;;
4986;SDS011;12674;51.500;7.552;2022-07-23T03:52:42;21.60;;;14.55;;
4986;SDS011;12674;51.500;7.552;2022-07-23T03:54:46;31.30;;;17.35;;
4986;SDS011;12674;51.500;7.552;2022-07-23T03:56:49;26.77;;;16.60;;
4986;SDS011;12674;51.500;7.552;2022-07-23T03:58:52;27.10;;;15.50;;
4986;SDS011;12674;51.500;7.552;2022-07-23T04:00:56;29.90;;;16.00;;
4986;SDS011;12674;51.500;7.552;2022-07-23T04:02:59;28.02;;;16.55;;
4986;SDS011;12674;51.500;7.552;2022-07-23T04:05:03;28.75;;;16.00;;
4986;SDS011;12674;51.500;7.552;2022-07-23T04:07:07;23.65;;;15.52;;
4986;SDS011;12674;51.500;7.552;2022-07-23T04:09:13;29.60;;;16.85;;
4986;SDS011;12674;51.500;7.552;2022-07-23T04:11:16;26.13;;;16.67;;
4986;SDS011;12674;51.500;7.552;2022-07-23T04:13:19;26.42;;;18.08;;
4986;SDS011;12674;51.500;7.552;2022-07-23T04:15:22;25.13;;;17.23;;
4986;SDS011;12674;51.500;7.552;2022-07-23T04:17:26;31.00;;;17.42;;
4986;SDS011;12674;51.500;7.552;2022-07-23T04:19:29;26.90;;;17.27;;
4986;SDS011;12674;51.500;7.552;2022-07-23T04:21:39;24.17;;;17.40;;
4986;SDS011;12674;51.500;7.552;2022-07-23T04:23:42;27.70;;;16.10;;
4986;SDS011;12674;51.500;7.552;2022-07-23T04:25:47;21.88;;;15.70;;
4986;SDS011;12674;51.500;7.552;2022-07-23T04:27:51;24.83;;;17.15;;
4986;SDS011;12674;51.500;7.552;2022-07-23T04:29:54;27.98;;;17.88;;
4986;SDS011;12674;51.500;7.552;2022-07-23T04:31:57;29.30;;;17.77;;
4986;SDS011;12674;51.500;7.552;2022-07-23T04:34:00;25.27;;;17.17;;
4986;SDS011;12674;51.500;7.552;2022-07-23T04:36:07;30.63;;;18.38;;
4986;SDS011;12674;51.500;7.552;2022-07-23T04:38:10;63.10;;;24.50;;
4986;SDS011;12674;51.500;7.552;2022-07-23T04:40:14;40.50;;;22.27;;
4986;SDS011;12674;51.500;7.552;2022-07-23T04:42:18;32.50;;;17.77;;
4986;SDS011;12674;51.500;7.552;2022-07-23T04:44:22;39.00;;;21.48;;
4986;SDS011;12674;51.500;7.552;2022-07-23T04:46:25;42.95;;;22.45;;
4986;SDS011;12674;51.500;7.552;2022-07-23T04:48:30;49.75;;;21.65;;
4986;SDS011;12674;51.500;7.552;2022-07-23T04:50:42;32.08;;;19.48;;
4986;SDS011;12674;51.500;7.552;2022-07-23T04:52:57;42.70;;;21.83;;
4986;SDS011;12674;51.500;7.552;2022-07-23T04:55:00;44.28;;;22.95;;
4986;SDS011;12674;51.500;7.552;2022-07-23T04:57:03;46.70;;;22.05;;
4986;SDS011;12674;51.500;7.552;2022-07-23T04:59:08;41.97;;;22.67;;
4986;SDS011;12674;51.500;7.552;2022-07-23T05:01:11;28.80;;;17.75;;
4986;SDS011;12674;51.500;7.552;2022-07-23T05:03:15;32.33;;;21.60;;
4986;SDS011;12674;51.500;7.552;2022-07-23T05:05:21;40.97;;;22.45;;
4986;SDS011;12674;51.500;7.552;2022-07-23T05:07:26;35.13;;;23.05;;
4986;SDS011;12674;51.500;7.552;2022-07-23T05:09:29;49.92;;;23.73;;
4986;SDS011;12674;51.500;7.552;2022-07-23T05:11:33;27.98;;;18.83;;
4986;SDS011;12674;51.500;7.552;2022-07-23T05:13:36;38.85;;;21.83;;
4986;SDS011;12674;51.500;7.552;2022-07-23T05:15:42;35.75;;;21.25;;
4986;SDS011;12674;51.500;7.552;2022-07-23T05:17:46;44.45;;;23.17;;
4986;SDS011;12674;51.500;7.552;2022-07-23T05:19:51;38.10;;;22.50;;
4986;SDS011;12674;51.500;7.552;2022-07-23T05:22:00;51.22;;;23.73;;
4986;SDS011;12674;51.500;7.552;2022-07-23T05:24:04;37.65;;;22.50;;
4986;SDS011;12674;51.500;7.552;2022-07-23T05:26:08;34.95;;;21.25;;
4986;SDS011;12674;51.500;7.552;2022-07-23T05:28:11;37.10;;;22.92;;
4986;SDS011;12674;51.500;7.552;2022-07-23T05:30:14;34.90;;;20.85;;
4986;SDS011;12674;51.500;7.552;2022-07-23T05:32:21;35.63;;;22.88;;
4986;SDS011;12674;51.500;7.552;2022-07-23T05:34:33;35.38;;;22.45;;
4986;SDS011;12674;51.500;7.552;2022-07-23T05:36:37;31.77;;;21.58;;
4986;SDS011;12674;51.500;7.552;2022-07-23T05:38:40;51.90;;;22.75;;
4986;SDS011;12674;51.500;7.552;2022-07-23T05:40:43;35.85;;;22.23;;
4986;SDS011;12674;51.500;7.552;2022-07-23T05:42:46;35.42;;;22.20;;
4986;SDS011;12674;51.500;7.552;2022-07-23T05:44:49;29.63;;;21.40;;
4986;SDS011;12674;51.500;7.552;2022-07-23T05:46:52;35.40;;;21.63;;
4986;SDS011;12674;51.500;7.552;2022-07-23T05:48:59;50.83;;;24.42;;
4986;SDS011;12674;51.500;7.552;2022-07-23T05:51:21;35.70;;;21.80;;
4986;SDS011;12674;51.500;7.552;2022-07-23T05:53:26;40.40;;;23.77;;
4986;SDS011;12674;51.500;7.552;2022-07-23T05:55:37;53.15;;;24.52;;
4986;SDS011;12674;51.500;7.552;2022-07-23T05:57:41;37.15;;;22.77;;
4986;SDS011;12674;51.500;7.552;2022-07-23T05:59:45;30.13;;;22.02;;
4986;SDS011;12674;51.500;7.552;2022-07-23T06:01:48;33.30;;;22.65;;
4986;SDS011;12674;51.500;7.552;2022-07-23T06:03:51;52.28;;;23.88;;
4986;SDS011;12674;51.500;7.552;2022-07-23T06:05:56;44.50;;;23.70;;
4986;SDS011;12674;51.500;7.552;2022-07-23T06:08:00;36.40;;;23.80;;
4986;SDS011;12674;51.500;7.552;2022-07-23T06:10:04;41.13;;;25.20;;
4986;SDS011;12674;51.500;7.552;2022-07-23T06:12:08;48.05;;;26.30;;
4986;SDS011;12674;51.500;7.552;2022-07-23T06:14:12;38.70;;;23.73;;
4986;SDS011;12674;51.500;7.552;2022-07-23T06:16:30;40.53;;;25.52;;
4986;SDS011;12674;51.500;7.552;2022-07-23T06:18:33;41.92;;;24.50;;
4986;SDS011;12674;51.500;7.552;2022-07-23T06:20:36;46.33;;;26.02;;
4986;SDS011;12674;51.500;7.552;2022-07-23T06:22:40;41.45;;;26.90;;
4986;SDS011;12674;51.500;7.552;2022-07-23T06:24:45;42.15;;;24.80;;
4986;SDS011;12674;51.500;7.552;2022-07-23T06:26:48;39.03;;;24.17;;
4986;SDS011;12674;51.500;7.552;2022-07-23T06:28:51;41.90;;;25.92;;
4986;SDS011;12674;51.500;7.552;2022-07-23T06:30:54;47.20;;;26.35;;
4986;SDS011;12674;51.500;7.552;2022-07-23T06:32:58;41.03;;;23.67;;
4986;SDS011;12674;51.500;7.552;2022-07-23T06:35:03;48.60;;;26.75;;
4986;SDS011;12674;51.500;7.552;2022-07-23T06:37:07;40.38;;;26.58;;
4986;SDS011;12674;51.500;7.552;2022-07-23T06:39:15;46.45;;;27.40;;
4986;SDS011;12674;51.500;7.552;2022-07-23T06:41:22;43.20;;;27.00;;
4986;SDS011;12674;51.500;7.552;2022-07-23T06:43:25;48.92;;;27.23;;
4986;SDS011;12674;51.500;7.552;2022-07-23T06:45:29;43.40;;;24.90;;
4986;SDS011;12674;51.500;7.552;2022-07-23T06:47:33;39.00;;;26.52;;
4986;SDS011;12674;51.500;7.552;2022-07-23T06:49:36;43.13;;;26.42;;
4986;SDS011;12674;51.500;7.552;2022-07-23T06:51:39;55.03;;;29.95;;
4986;SDS011;12674;51.500;7.552;2022-07-23T06:53:42;46.47;;;28.23;;
4986;SDS011;12674;51.500;7.552;2022-07-23T06:55:46;39.78;;;24.70;;
4986;SDS011;12674;51.500;7.552;2022-07-23T06:57:49;44.35;;;27.92;;
4986;SDS011;12674;51.500;7.552;2022-07-23T06:59:52;51.78;;;27.77;;
4986;SDS011;12674;51.500;7.552;2022-07-23T07:01:56;44.30;;;27.33;;
4986;SDS011;12674;51.500;7.552;2022-07-23T07:04:00;48.58;;;29.95;;
4986;SDS011;12674;51.500;7.552;2022-07-23T07:06:03;55.33;;;33.83;;
4986;SDS011;12674;51.500;7.552;2022-07-23T07:08:08;53.05;;;33.40;;
4986;SDS011;12674;51.500;7.552;2022-07-23T07:10:11;57.05;;;35.50;;
4986;SDS011;12674;51.500;7.552;2022-07-23T07:12:18;54.95;;;35.58;;
4986;SDS011;12674;51.500;7.552;2022-07-23T07:14:21;57.10;;;38.08;;
4986;SDS011;12674;51.500;7.552;2022-07-23T07:16:24;68.53;;;41.45;;
4986;SDS011;12674;51.500;7.552;2022-07-23T07:18:33;60.10;;;40.33;;
4986;SDS011;12674;51.500;7.552;2022-07-23T07:20:36;62.05;;;43.00;;
4986;SDS011;12674;51.500;7.552;2022-07-23T07:22:39;61.80;;;42.50;;
4986;SDS011;12674;51.500;7.552;2022-07-23T07:24:42;67.53;;;41.17;;
4986;SDS011;12674;51.500;7.552;2022-07-23T07:26:45;66.30;;;43.67;;
4986;SDS011;12674;51.500;7.552;2022-07-23T07:28:50;69.25;;;45.78;;
4986;SDS011;12674;51.500;7.552;2022-07-23T07:30:53;78.10;;;46.67;;
4986;SDS011;12674;51.500;7.552;2022-07-23T07:32:56;70.57;;;46.22;;
4986;SDS011;12674;51.500;7.552;2022-07-23T07:35:00;72.32;;;46.80;;
4986;SDS011;12674;51.500;7.552;2022-07-23T07:37:03;67.22;;;45.00;;
4986;SDS011;12674;51.500;7.552;2022-07-23T07:39:06;59.30;;;43.15;;
4986;SDS011;12674;51.500;7.552;2022-07-23T07:41:11;63.17;;;43.15;;
4986;SDS011;12674;51.500;7.552;2022-07-23T07:43:15;55.50;;;40.58;;
4986;SDS011;12674;51.500;7.552;2022-07-23T07:45:20;49.05;;;31.48;;
4986;SDS011;12674;51.500;7.552;2022-07-23T07:47:24;45.58;;;32.38;;
4986;SDS011;12674;51.500;7.552;2022-07-23T07:49:27;33.70;;;25.48;;
4986;SDS011;12674;51.500;7.552;2022-07-23T07:51:35;33.70;;;22.67;;
4986;SDS011;12674;51.500;7.552;2022-07-23T07:53:38;32.38;;;23.60;;
4986;SDS011;12674;51.500;7.552;2022-07-23T07:55:42;44.88;;;35.20;;
4986;SDS011;12674;51.500;7.552;2022-07-23T07:57:52;51.10;;;40.33;;
4986;SDS011;12674;51.500;7.552;2022-07-23T07:59:55;54.85;;;41.75;;
4986;SDS011;12674;51.500;7.552;2022-07-23T08:02:13;50.15;;;40.80;;
4986;SDS011;12674;51.500;7.552;2022-07-23T08:04:16;53.92;;;40.63;;
4986;SDS011;12674;51.500;7.552;2022-07-23T08:06:20;55.83;;;40.17;;
4986;SDS011;12674;51.500;7.552;2022-07-23T08:08:23;50.67;;;37.63;;
4986;SDS011;12674;51.500;7.552;2022-07-23T08:10:26;48.17;;;37.88;;
4986;SDS011;12674;51.500;7.552;2022-07-23T08:12:37;43.20;;;35.60;;
4986;SDS011;12674;51.500;7.552;2022-07-23T08:14:40;51.13;;;35.58;;
4986;SDS011;12674;51.500;7.552;2022-07-23T08:16:43;49.55;;;34.50;;
4986;SDS011;12674;51.500;7.552;2022-07-23T08:19:08;42.20;;;33.58;;
4986;SDS011;12674;51.500;7.552;2022-07-23T08:21:11;48.35;;;35.85;;
4986;SDS011;12674;51.500;7.552;2022-07-23T08:23:14;51.80;;;37.13;;
4986;SDS011;12674;51.500;7.552;2022-07-23T08:25:21;50.22;;;33.75;;
4986;SDS011;12674;51.500;7.552;2022-07-23T08:27:25;43.40;;;35.63;;
4986;SDS011;12674;51.500;7.552;2022-07-23T08:29:28;47.13;;;35.83;;
4986;SDS011;12674;51.500;7.552;2022-07-23T08:31:31;47.78;;;37.70;;
4986;SDS011;12674;51.500;7.552;2022-07-23T08:33:35;49.80;;;36.58;;
4986;SDS011;12674;51.500;7.552;2022-07-23T08:35:40;48.00;;;38.10;;
4986;SDS011;12674;51.500;7.552;2022-07-23T08:37:44;47.95;;;35.50;;
4986;SDS011;12674;51.500;7.552;2022-07-23T08:39:47;43.15;;;34.42;;
4986;SDS011;12674;51.500;7.552;2022-07-23T08:41:50;42.03;;;32.75;;
4986;SDS011;12674;51.500;7.552;2022-07-23T08:43:53;40.55;;;29.98;;
4986;SDS011;12674;51.500;7.552;2022-07-23T08:45:57;38.70;;;29.88;;
4986;SDS011;12674;51.500;7.552;2022-07-23T08:48:02;32.22;;;26.92;;
4986;SDS011;12674;51.500;7.552;2022-07-23T08:50:07;36.33;;;28.45;;
4986;SDS011;12674;51.500;7.552;2022-07-23T08:52:12;26.88;;;18.85;;
4986;SDS011;12674;51.500;7.552;2022-07-23T08:54:16;17.08;;;12.02;;
4986;SDS011;12674;51.500;7.552;2022-07-23T08:56:19;15.07;;;10.07;;
4986;SDS011;12674;51.500;7.552;2022-07-23T08:58:23;19.02;;;12.35;;
4986;SDS011;12674;51.500;7.552;2022-07-23T09:00:29;14.80;;;10.18;;
4986;SDS011;12674;51.500;7.552;2022-07-23T09:02:37;13.00;;;10.85;;
4986;SDS011;12674;51.500;7.552;2022-07-23T09:04:41;13.43;;;9.77;;
4986;SDS011;12674;51.500;7.552;2022-07-23T09:06:44;12.30;;;8.80;;
4986;SDS011;12674;51.500;7.552;2022-07-23T09:08:49;12.15;;;9.07;;
4986;SDS011;12674;51.500;7.552;2022-07-23T09:10:53;13.18;;;8.65;;
4986;SDS011;12674;51.500;7.552;2022-07-23T09:12:57;18.20;;;10.07;;
4986;SDS011;12674;51.500;7.552;2022-07-23T09:15:04;11.10;;;9.10;;
4986;SDS011;12674;51.500;7.552;2022-07-23T09:17:09;16.95;;;10.52;;
4986;SDS011;12674;51.500;7.552;2022-07-23T09:19:13;12.55;;;9.60;;
4986;SDS011;12674;51.500;7.552;2022-07-23T09:21:17;11.55;;;8.60;;
4986;SDS011;12674;51.500;7.552;2022-07-23T09:23:26;12.63;;;8.00;;
4986;SDS011;12674;51.500;7.552;2022-07-23T09:25:41;9.35;;;6.40;;
4986;SDS011;12674;51.500;7.552;2022-07-23T09:27:50;10.85;;;6.35;;
4986;SDS011;12674;51.500;7.552;2022-07-23T09:29:57;11.05;;;5.68;;
4986;SDS011;12674;51.500;7.552;2022-07-23T09:32:00;8.48;;;5.22;;
4986;SDS011;12674;51.500;7.552;2022-07-23T09:34:07;12.20;;;5.55;;
4986;SDS011;12674;51.500;7.552;2022-07-23T09:36:11;10.05;;;7.35;;
4986;SDS011;12674;51.500;7.552;2022-07-23T09:38:15;12.98;;;5.53;;
4986;SDS011;12674;51.500;7.552;2022-07-23T09:40:18;8.35;;;5.22;;
4986;SDS011;12674;51.500;7.552;2022-07-23T09:42:23;8.40;;;4.65;;
4986;SDS011;12674;51.500;7.552;2022-07-23T09:44:27;6.95;;;4.38;;
4986;SDS011;12674;51.500;7.552;2022-07-23T09:46:31;6.75;;;4.50;;
4986;SDS011;12674;51.500;7.552;2022-07-23T09:48:34;11.73;;;4.82;;
4986;SDS011;12674;51.500;7.552;2022-07-23T09:50:37;5.65;;;4.68;;
4986;SDS011;12674;51.500;7.552;2022-07-23T09:52:42;6.82;;;4.47;;
4986;SDS011;12674;51.500;7.552;2022-07-23T09:54:46;11.20;;;7.82;;
4986;SDS011;12674;51.500;7.552;2022-07-23T09:57:03;10.07;;;8.48;;
4986;SDS011;12674;51.500;7.552;2022-07-23T09:59:11;13.55;;;9.23;;
4986;SDS011;12674;51.500;7.552;2022-07-23T10:01:14;10.43;;;5.05;;
4986;SDS011;12674;51.500;7.552;2022-07-23T10:03:17;7.18;;;4.13;;
4986;SDS011;12674;51.500;7.552;2022-07-23T10:05:44;7.30;;;4.10;;
4986;SDS011;12674;51.500;7.552;2022-07-23T10:08:02;14.38;;;3.92;;
4986;SDS011;12674;51.500;7.552;2022-07-23T10:10:31;9.25;;;4.45;;
4986;SDS011;12674;51.500;7.552;2022-07-23T10:12:59;6.75;;;3.60;;
4986;SDS011;12674;51.500;7.552;2022-07-23T10:15:24;12.20;;;4.80;;
4986;SDS011;12674;51.500;7.552;2022-07-23T10:17:27;9.98;;;5.05;;
4986;SDS011;12674;51.500;7.552;2022-07-23T10:19:31;6.80;;;3.50;;
4986;SDS011;12674;51.500;7.552;2022-07-23T10:21:36;6.47;;;4.47;;
4986;SDS011;12674;51.500;7.552;2022-07-23T10:23:44;4.25;;;3.50;;
4986;SDS011;12674;51.500;7.552;2022-07-23T10:25:54;13.27;;;5.05;;
4986;SDS011;12674;51.500;7.552;2022-07-23T10:28:06;6.57;;;3.90;;
4986;SDS011;12674;51.500;7.552;2022-07-23T10:30:15;7.68;;;3.80;;
4986;SDS011;12674;51.500;7.552;2022-07-23T10:32:29;3.40;;;3.00;;
4986;SDS011;12674;51.500;7.552;2022-07-23T10:34:41;5.68;;;2.95;;
4986;SDS011;12674;51.500;7.552;2022-07-23T10:36:49;5.38;;;3.40;;
4986;SDS011;12674;51.500;7.552;2022-07-23T10:38:57;9.10;;;3.17;;
4986;SDS011;12674;51.500;7.552;2022-07-23T10:41:02;9.48;;;2.95;;
4986;SDS011;12674;51.500;7.552;2022-07-23T10:43:12;4.10;;;3.63;;
4986;SDS011;12674;51.500;7.552;2022-07-23T10:45:23;6.88;;;3.35;;
4986;SDS011;12674;51.500;7.552;2022-07-23T10:47:32;9.48;;;3.40;;
4986;SDS011;12674;51.500;7.552;2022-07-23T10:49:47;7.50;;;3.63;;
4986;SDS011;12674;51.500;7.552;2022-07-23T10:54:23;7.88;;;3.55;;
4986;SDS011;12674;51.500;7.552;2022-07-23T10:59:08;6.10;;;3.20;;
4986;SDS011;12674;51.500;7.552;2022-07-23T11:01:30;4.78;;;2.55;;
4986;SDS011;12674;51.500;7.552;2022-07-23T11:03:36;6.32;;;2.60;;
4986;SDS011;12674;51.500;7.552;2022-07-23T11:05:41;6.75;;;3.97;;
4986;SDS011;12674;51.500;7.552;2022-07-23T11:10:31;8.35;;;3.47;;
4986;SDS011;12674;51.500;7.552;2022-07-23T11:12:35;4.60;;;3.33;;
4986;SDS011;12674;51.500;7.552;2022-07-23T11:17:00;3.90;;;2.22;;
4986;SDS011;12674;51.500;7.552;2022-07-23T11:19:08;5.45;;;2.25;;
4986;SDS011;12674;51.500;7.552;2022-07-23T11:23:58;2.40;;;2.00;;
4986;SDS011;12674;51.500;7.552;2022-07-23T11:26:02;5.30;;;2.67;;
4986;SDS011;12674;51.500;7.552;2022-07-23T11:28:10;7.05;;;3.13;;
4986;SDS011;12674;51.500;7.552;2022-07-23T11:30:37;5.03;;;2.47;;
4986;SDS011;12674;51.500;7.552;2022-07-23T11:32:41;5.20;;;3.13;;
4986;SDS011;12674;51.500;7.552;2022-07-23T11:34:46;2.63;;;2.40;;
4986;SDS011;12674;51.500;7.552;2022-07-23T11:36:50;4.70;;;2.88;;
4986;SDS011;12674;51.500;7.552;2022-07-23T11:38:53;4.78;;;2.90;;
4986;SDS011;12674;51.500;7.552;2022-07-23T11:40:56;3.53;;;2.78;;
4986;SDS011;12674;51.500;7.552;2022-07-23T11:43:00;7.47;;;3.92;;
4986;SDS011;12674;51.500;7.552;2022-07-23T11:45:06;4.15;;;3.10;;
4986;SDS011;12674;51.500;7.552;2022-07-23T11:47:10;5.78;;;3.20;;
4986;SDS011;12674;51.500;7.552;2022-07-23T11:49:14;6.03;;;2.97;;
4986;SDS011;12674;51.500;7.552;2022-07-23T11:51:25;4.03;;;2.53;;
4986;SDS011;12674;51.500;7.552;2022-07-23T11:53:30;8.75;;;2.90;;
4986;SDS011;12674;51.500;7.552;2022-07-23T11:55:34;4.80;;;3.35;;
4986;SDS011;12674;51.500;7.552;2022-07-23T11:57:38;9.38;;;3.58;;
4986;SDS011;12674;51.500;7.552;2022-07-23T11:59:42;7.63;;;2.95;;
4986;SDS011;12674;51.500;7.552;2022-07-23T12:05:01;5.25;;;3.72;;
4986;SDS011;12674;51.500;7.552;2022-07-23T12:09:38;8.23;;;2.90;;
4986;SDS011;12674;51.500;7.552;2022-07-23T12:11:58;3.92;;;2.63;;
4986;SDS011;12674;51.500;7.552;2022-07-23T12:14:02;6.32;;;2.70;;
4986;SDS011;12674;51.500;7.552;2022-07-23T12:16:06;10.30;;;2.45;;
4986;SDS011;12674;51.500;7.552;2022-07-23T12:18:11;4.30;;;2.28;;
4986;SDS011;12674;51.500;7.552;2022-07-23T12:20:16;6.63;;;2.60;;
4986;SDS011;12674;51.500;7.552;2022-07-23T12:22:23;4.35;;;2.53;;
4986;SDS011;12674;51.500;7.552;2022-07-23T12:24:26;8.52;;;3.22;;
4986;SDS011;12674;51.500;7.552;2022-07-23T12:26:31;3.72;;;2.38;;
4986;SDS011;12674;51.500;7.552;2022-07-23T12:28:34;8.70;;;3.10;;
4986;SDS011;12674;51.500;7.552;2022-07-23T12:30:40;4.82;;;2.80;;
4986;SDS011;12674;51.500;7.552;2022-07-23T12:32:44;4.28;;;2.95;;
4986;SDS011;12674;51.500;7.552;2022-07-23T12:34:49;5.93;;;2.70;;
4986;SDS011;12674;51.500;7.552;2022-07-23T12:36:53;5.13;;;2.80;;
4986;SDS011;12674;51.500;7.552;2022-07-23T12:38:57;3.08;;;2.45;;
4986;SDS011;12674;51.500;7.552;2022-07-23T12:41:01;3.45;;;2.22;;
4986;SDS011;12674;51.500;7.552;2022-07-23T12:43:06;6.57;;;2.13;;
4986;SDS011;12674;51.500;7.552;2022-07-23T12:45:10;4.93;;;2.15;;
4986;SDS011;12674;51.500;7.552;2022-07-23T12:47:14;7.95;;;2.00;;